createdAt,value
2018-02-17T00:00:59.797Z,0.00
2018-02-17T00:01:59.749Z,0.00
2018-02-17T00:02:59.702Z,0.00
2018-02-17T00:03:59.955Z,0.00
2018-02-17T00:04:59.603Z,0.00
2018-02-17T00:05:59.555Z,0.00
2018-02-17T00:06:59.505Z,0.00
2018-02-17T00:07:59.459Z,0.00
2018-02-17T00:08:59.410Z,0.00
2018-02-17T00:09:59.659Z,0.00
2018-02-17T00:10:59.321Z,0.00
2018-02-17T00:11:59.315Z,0.00
2018-02-17T00:12:59.226Z,0.00
2018-02-17T00:13:59.167Z,0.00
2018-02-17T00:14:59.121Z,0.00
2018-02-17T00:15:59.372Z,0.00
2018-02-17T00:16:59.031Z,0.00
2018-02-17T00:17:59.024Z,0.00
2018-02-17T00:18:58.928Z,0.00
2018-02-17T00:19:58.880Z,0.00
2018-02-17T00:20:58.835Z,0.00
2018-02-17T00:21:59.082Z,0.00
2018-02-17T00:22:58.733Z,0.00
2018-02-17T00:23:58.686Z,0.00
2018-02-17T00:24:58.636Z,0.00
2018-02-17T00:25:58.588Z,0.00
2018-02-17T00:26:58.541Z,0.00
2018-02-17T00:27:58.792Z,0.00
2018-02-17T00:28:58.451Z,0.00
2018-02-17T00:29:58.395Z,0.00
2018-02-17T00:30:58.349Z,0.00
2018-02-17T00:31:58.297Z,0.00
2018-02-17T00:32:58.251Z,0.00
2018-02-17T00:33:58.201Z,0.00
2018-02-17T00:34:58.452Z,0.00
2018-02-17T00:35:58.103Z,0.00
2018-02-17T00:36:58.055Z,0.00
2018-02-17T00:37:58.007Z,0.00
2018-02-17T00:38:57.965Z,0.00
2018-02-17T00:39:57.910Z,0.00
2018-02-17T00:40:57.865Z,0.00
2018-02-17T00:41:58.117Z,0.00
2018-02-17T00:42:57.770Z,0.00
2018-02-17T00:43:57.868Z,0.00
2018-02-17T00:44:57.691Z,0.00
2018-02-17T00:45:57.619Z,0.00
2018-02-17T00:46:57.571Z,0.00
2018-02-17T00:47:57.527Z,0.00
2018-02-17T00:48:57.773Z,0.00
2018-02-17T00:49:57.559Z,0.00
2018-02-17T00:50:57.380Z,0.00
2018-02-17T00:51:57.330Z,0.00
2018-02-17T00:52:57.283Z,0.00
2018-02-17T00:53:57.231Z,0.00
2018-02-17T00:54:57.182Z,0.00
2018-02-17T00:55:57.483Z,0.00
2018-02-17T00:56:57.086Z,0.00
2018-02-17T00:57:57.037Z,0.00
2018-02-17T00:58:56.989Z,0.00
2018-02-17T00:59:56.944Z,0.00
2018-02-17T01:00:56.891Z,0.00
2018-02-17T01:01:56.843Z,0.00
2018-02-17T01:02:57.100Z,0.00
2018-02-17T01:03:56.747Z,0.00
2018-02-17T01:04:56.697Z,0.00
2018-02-17T01:05:56.646Z,0.00
2018-02-17T01:06:56.652Z,0.00
2018-02-17T01:07:56.549Z,0.00
2018-02-17T01:08:56.802Z,0.00
2018-02-17T01:09:56.458Z,0.00
2018-02-17T01:10:56.411Z,0.00
2018-02-17T01:11:56.355Z,0.00
2018-02-17T01:12:56.359Z,0.00
2018-02-17T01:13:56.260Z,0.00
2018-02-17T01:14:56.512Z,0.00
2018-02-17T01:15:56.160Z,0.00
2018-02-17T01:16:56.113Z,0.00
2018-02-17T01:17:56.070Z,0.00
2018-02-17T01:18:56.014Z,0.00
2018-02-17T01:19:55.969Z,0.00
2018-02-17T01:20:56.216Z,0.00
2018-02-17T01:21:55.868Z,0.00
2018-02-17T01:22:55.820Z,0.00
2018-02-17T01:23:55.777Z,0.00
2018-02-17T01:24:55.730Z,0.00
2018-02-17T01:25:55.681Z,0.00
2018-02-17T01:26:55.923Z,0.00
2018-02-17T01:27:55.583Z,0.00
2018-02-17T01:28:55.531Z,0.00
2018-02-17T01:29:55.481Z,0.00
2018-02-17T01:30:55.429Z,0.00
2018-02-17T01:31:55.382Z,0.00
2018-02-17T01:32:55.632Z,0.00
2018-02-17T01:33:55.284Z,0.00
2018-02-17T01:34:55.234Z,0.00
2018-02-17T01:35:55.186Z,0.00
2018-02-17T01:36:55.139Z,0.00
2018-02-17T01:37:55.086Z,0.00
2018-02-17T01:38:55.038Z,0.00
2018-02-17T01:39:55.293Z,0.00
2018-02-17T01:40:54.954Z,0.00
2018-02-17T01:41:54.895Z,0.00
2018-02-17T01:42:54.847Z,0.00
2018-02-17T01:43:54.797Z,0.00
2018-02-17T01:44:54.798Z,0.00
2018-02-17T01:45:54.697Z,0.00
2018-02-17T01:46:54.949Z,0.00
2018-02-17T01:47:54.607Z,0.00
2018-02-17T01:48:54.600Z,0.00
2018-02-17T01:49:54.503Z,0.00
2018-02-17T01:50:54.503Z,0.00
2018-02-17T01:51:54.409Z,0.00
2018-02-17T01:52:54.358Z,0.00
2018-02-17T01:53:54.611Z,0.00
2018-02-17T01:54:54.260Z,0.00
2018-02-17T01:55:54.209Z,0.00
2018-02-17T01:56:54.163Z,0.00
2018-02-17T01:57:54.112Z,0.00
2018-02-17T01:58:54.073Z,0.00
2018-02-17T01:59:54.016Z,0.00
2018-02-17T02:00:54.272Z,0.00
2018-02-17T02:01:53.918Z,0.00
2018-02-17T02:02:53.869Z,0.00
2018-02-17T02:03:53.819Z,0.00
2018-02-17T02:04:53.770Z,0.00
2018-02-17T02:05:53.727Z,0.00
2018-02-17T02:06:53.672Z,0.00
2018-02-17T02:07:53.925Z,0.00
2018-02-17T02:08:53.578Z,0.00
2018-02-17T02:09:53.528Z,0.00
2018-02-17T02:10:53.476Z,0.00
2018-02-17T02:11:53.428Z,0.00
2018-02-17T02:12:53.377Z,0.00
2018-02-17T02:13:53.331Z,0.00
2018-02-17T02:14:53.582Z,0.00
2018-02-17T02:15:53.230Z,0.00
2018-02-17T02:16:53.184Z,0.00
2018-02-17T02:17:53.133Z,0.00
2018-02-17T02:18:53.084Z,0.00
2018-02-17T02:19:53.034Z,0.00
2018-02-17T02:20:53.286Z,0.00
2018-02-17T02:21:52.936Z,0.00
2018-02-17T02:22:52.942Z,0.00
2018-02-17T02:23:52.845Z,0.00
2018-02-17T02:24:52.792Z,0.00
2018-02-17T02:25:52.742Z,0.00
2018-02-17T02:26:53.018Z,0.00
2018-02-17T02:27:52.644Z,0.00
2018-02-17T02:28:52.597Z,0.00
2018-02-17T02:29:52.545Z,0.00
2018-02-17T02:30:52.502Z,0.00
2018-02-17T02:31:52.452Z,0.00
2018-02-17T02:32:52.701Z,0.00
2018-02-17T02:33:52.405Z,0.00
2018-02-17T02:34:52.303Z,0.00
2018-02-17T02:35:52.256Z,0.00
2018-02-17T02:36:52.205Z,0.00
2018-02-17T02:37:52.155Z,0.00
2018-02-17T02:38:52.407Z,0.00
2018-02-17T02:39:52.058Z,0.00
2018-02-17T02:40:52.008Z,0.00
2018-02-17T02:41:51.960Z,0.00
2018-02-17T02:42:51.912Z,0.00
2018-02-17T02:43:51.863Z,0.00
2018-02-17T02:44:52.129Z,0.00
2018-02-17T02:45:51.763Z,0.00
2018-02-17T02:46:51.716Z,0.00
2018-02-17T02:47:51.668Z,0.00
2018-02-17T02:48:51.617Z,0.00
2018-02-17T02:49:51.566Z,0.00
2018-02-17T02:50:51.518Z,0.00
2018-02-17T02:51:51.774Z,0.00
2018-02-17T02:52:51.436Z,0.00
2018-02-17T02:53:51.373Z,0.00
2018-02-17T02:54:51.323Z,0.00
2018-02-17T02:55:51.277Z,0.00
2018-02-17T02:56:51.224Z,0.00
2018-02-17T02:57:51.174Z,0.00
2018-02-17T02:58:51.428Z,0.00
2018-02-17T02:59:51.080Z,0.00
2018-02-17T03:00:51.030Z,0.00
2018-02-17T03:01:50.984Z,0.00
2018-02-17T03:02:50.930Z,0.00
2018-02-17T03:03:50.880Z,0.00
2018-02-17T03:04:50.833Z,0.00
2018-02-17T03:05:51.084Z,0.00
2018-02-17T03:06:50.734Z,0.00
2018-02-17T03:07:50.686Z,0.00
2018-02-17T03:08:50.640Z,0.00
2018-02-17T03:09:50.584Z,0.00
2018-02-17T03:10:50.541Z,0.00
2018-02-17T03:11:50.488Z,0.00
2018-02-17T03:12:50.749Z,0.00
2018-02-17T03:13:50.391Z,0.00
2018-02-17T03:14:50.337Z,0.00
2018-02-17T03:15:50.293Z,0.00
2018-02-17T03:16:50.243Z,0.00
2018-02-17T03:17:50.192Z,0.00
2018-02-17T03:18:50.144Z,0.00
2018-02-17T03:19:50.402Z,0.00
2018-02-17T03:20:50.044Z,0.00
2018-02-17T03:21:49.996Z,0.00
2018-02-17T03:22:49.997Z,0.00
2018-02-17T03:23:49.897Z,0.00
2018-02-17T03:24:49.848Z,0.00
2018-02-17T03:25:49.796Z,0.00
2018-02-17T03:26:50.049Z,0.00
2018-02-17T03:27:49.699Z,0.00
2018-02-17T03:28:49.649Z,0.00
2018-02-17T03:29:49.601Z,0.00
2018-02-17T03:30:49.552Z,0.00
2018-02-17T03:31:49.501Z,0.00
2018-02-17T03:32:49.761Z,0.00
2018-02-17T03:33:49.404Z,0.00
2018-02-17T03:34:49.373Z,0.00
2018-02-17T03:35:49.308Z,0.00
2018-02-17T03:36:49.259Z,0.00
2018-02-17T03:37:49.208Z,0.00
2018-02-17T03:38:49.458Z,0.00
2018-02-17T03:39:49.110Z,0.00
2018-02-17T03:40:49.059Z,0.00
2018-02-17T03:41:49.009Z,0.00
2018-02-17T03:42:48.960Z,0.00
2018-02-17T03:43:48.918Z,0.00
2018-02-17T03:44:49.168Z,0.00
2018-02-17T03:45:48.812Z,0.00
2018-02-17T03:46:48.768Z,0.00
2018-02-17T03:47:48.712Z,0.00
2018-02-17T03:48:48.665Z,0.00
2018-02-17T03:49:48.665Z,0.00
2018-02-17T03:50:48.868Z,0.00
2018-02-17T03:51:48.515Z,0.00
2018-02-17T03:52:48.470Z,0.00
2018-02-17T03:53:48.417Z,0.00
2018-02-17T03:54:48.365Z,0.00
2018-02-17T03:55:48.317Z,0.00
2018-02-17T03:56:48.567Z,0.00
2018-02-17T03:57:48.217Z,0.00
2018-02-17T03:58:48.167Z,0.00
2018-02-17T03:59:48.120Z,0.00
2018-02-17T04:00:48.068Z,0.00
2018-02-17T04:01:48.071Z,0.00
2018-02-17T04:02:47.968Z,0.00
2018-02-17T04:03:48.222Z,0.00
2018-02-17T04:04:47.870Z,0.00
2018-02-17T04:05:47.820Z,0.00
2018-02-17T04:06:47.771Z,0.00
2018-02-17T04:07:47.721Z,0.00
2018-02-17T04:08:47.676Z,0.00
2018-02-17T04:09:47.632Z,0.00
2018-02-17T04:10:47.871Z,0.00
2018-02-17T04:11:47.523Z,0.00
2018-02-17T04:12:47.477Z,0.00
2018-02-17T04:13:47.423Z,0.00
2018-02-17T04:14:47.376Z,0.00
2018-02-17T04:15:47.325Z,0.00
2018-02-17T04:16:47.276Z,0.00
2018-02-17T04:17:47.532Z,0.00
2018-02-17T04:18:47.177Z,0.00
2018-02-17T04:19:47.128Z,0.00
2018-02-17T04:20:47.078Z,0.00
2018-02-17T04:21:47.026Z,0.00
2018-02-17T04:22:46.978Z,0.00
2018-02-17T04:23:46.928Z,0.00
2018-02-17T04:24:47.193Z,0.00
2018-02-17T04:25:46.829Z,0.00
2018-02-17T04:26:46.780Z,0.00
2018-02-17T04:27:46.739Z,0.00
2018-02-17T04:28:46.688Z,0.00
2018-02-17T04:29:46.630Z,0.00
2018-02-17T04:30:46.582Z,0.00
2018-02-17T04:31:46.836Z,0.00
2018-02-17T04:32:46.485Z,0.00
2018-02-17T04:33:46.434Z,0.00
2018-02-17T04:34:46.385Z,0.00
2018-02-17T04:35:46.342Z,0.00
2018-02-17T04:36:46.288Z,0.00
2018-02-17T04:37:46.537Z,0.00
2018-02-17T04:38:46.186Z,0.00
2018-02-17T04:39:46.136Z,0.00
2018-02-17T04:40:46.087Z,0.00
2018-02-17T04:41:46.043Z,0.00
2018-02-17T04:42:45.990Z,0.00
2018-02-17T04:43:46.239Z,0.00
2018-02-17T04:44:45.890Z,0.00
2018-02-17T04:45:45.842Z,0.00
2018-02-17T04:46:45.791Z,0.00
2018-02-17T04:47:45.995Z,0.00
2018-02-17T04:48:45.704Z,0.00
2018-02-17T04:49:45.944Z,0.00
2018-02-17T04:50:45.593Z,0.00
2018-02-17T04:51:45.544Z,0.00
2018-02-17T04:52:45.493Z,0.00
2018-02-17T04:53:45.443Z,0.00
2018-02-17T04:54:45.399Z,0.00
2018-02-17T04:55:45.644Z,0.00
2018-02-17T04:56:45.323Z,0.00
2018-02-17T04:57:45.246Z,0.00
2018-02-17T04:58:45.205Z,0.00
2018-02-17T04:59:45.146Z,0.00
2018-02-17T05:00:45.098Z,0.00
2018-02-17T05:01:45.351Z,0.00
2018-02-17T05:02:44.999Z,0.00
2018-02-17T05:03:44.949Z,0.00
2018-02-17T05:04:44.899Z,0.00
2018-02-17T05:05:44.849Z,0.00
2018-02-17T05:06:44.800Z,0.00
2018-02-17T05:07:44.752Z,0.00
2018-02-17T05:08:45.000Z,0.00
2018-02-17T05:09:44.653Z,0.00
2018-02-17T05:10:44.603Z,0.00
2018-02-17T05:11:44.553Z,0.00
2018-02-17T05:12:44.501Z,0.00
2018-02-17T05:13:44.502Z,0.00
2018-02-17T05:14:44.402Z,0.00
2018-02-17T05:15:44.652Z,0.00
2018-02-17T05:16:44.306Z,0.00
2018-02-17T05:17:44.253Z,0.00
2018-02-17T05:18:44.259Z,0.00
2018-02-17T05:19:44.156Z,0.00
2018-02-17T05:20:44.105Z,0.00
2018-02-17T05:21:44.056Z,0.00
2018-02-17T05:22:44.306Z,0.00
2018-02-17T05:23:43.963Z,0.00
2018-02-17T05:24:43.958Z,0.00
2018-02-17T05:25:43.859Z,0.00
2018-02-17T05:26:43.810Z,0.00
2018-02-17T05:27:43.766Z,0.00
2018-02-17T05:28:43.711Z,0.00
2018-02-17T05:29:43.959Z,0.00
2018-02-17T05:30:43.609Z,0.00
2018-02-17T05:31:43.562Z,0.00
2018-02-17T05:32:43.514Z,0.00
2018-02-17T05:33:43.460Z,0.00
2018-02-17T05:34:43.413Z,0.00
2018-02-17T05:35:43.461Z,0.00
2018-02-17T05:36:43.614Z,0.00
2018-02-17T05:37:43.265Z,0.00
2018-02-17T05:38:43.214Z,0.00
2018-02-17T05:39:43.164Z,0.00
2018-02-17T05:40:43.114Z,0.00
2018-02-17T05:41:43.063Z,0.00
2018-02-17T05:42:43.020Z,0.00
2018-02-17T05:43:43.273Z,0.00
2018-02-17T05:44:42.917Z,0.00
2018-02-17T05:45:42.864Z,0.00
2018-02-17T05:46:42.815Z,0.00
2018-02-17T05:47:42.766Z,0.00
2018-02-17T05:48:42.718Z,0.00
2018-02-17T05:49:42.967Z,0.00
2018-02-17T05:50:42.620Z,0.00
2018-02-17T05:51:42.569Z,0.00
2018-02-17T05:52:42.520Z,0.00
2018-02-17T05:53:42.470Z,0.00
2018-02-17T05:54:42.418Z,0.00
2018-02-17T05:55:42.674Z,0.00
2018-02-17T05:56:42.321Z,0.00
2018-02-17T05:57:42.320Z,0.00
2018-02-17T05:58:42.219Z,0.00
2018-02-17T05:59:42.173Z,0.00
2018-02-17T06:00:42.124Z,0.00
2018-02-17T06:01:42.371Z,0.00
2018-02-17T06:02:42.025Z,0.00
2018-02-17T06:03:42.072Z,4.00
2018-02-17T06:04:41.924Z,4.00
2018-02-17T06:05:41.875Z,0.00
2018-02-17T06:06:41.826Z,4.00
2018-02-17T06:07:42.100Z,4.00
2018-02-17T06:08:41.726Z,4.00
2018-02-17T06:09:41.726Z,4.00
2018-02-17T06:10:41.626Z,4.00
2018-02-17T06:11:41.583Z,4.00
2018-02-17T06:12:41.527Z,12.00
2018-02-17T06:13:41.776Z,12.00
2018-02-17T06:14:41.464Z,12.00
2018-02-17T06:15:41.381Z,16.00
2018-02-17T06:16:41.327Z,16.00
2018-02-17T06:17:41.284Z,20.00
2018-02-17T06:18:41.242Z,24.00
2018-02-17T06:19:41.181Z,28.00
2018-02-17T06:20:41.430Z,32.00
2018-02-17T06:21:41.081Z,36.00
2018-02-17T06:22:41.031Z,44.00
2018-02-17T06:23:40.990Z,52.00
2018-02-17T06:24:40.933Z,60.00
2018-02-17T06:25:40.882Z,72.00
2018-02-17T06:26:40.832Z,84.00
2018-02-17T06:27:41.085Z,92.00
2018-02-17T06:28:40.738Z,108.00
2018-02-17T06:29:40.686Z,124.00
2018-02-17T06:30:40.635Z,140.00
2018-02-17T06:31:40.598Z,156.00
2018-02-17T06:32:40.542Z,176.00
2018-02-17T06:33:40.488Z,196.00
2018-02-17T06:34:40.744Z,216.00
2018-02-17T06:35:40.388Z,244.00
2018-02-17T06:36:40.341Z,264.00
2018-02-17T06:37:40.289Z,292.00
2018-02-17T06:38:40.238Z,316.00
2018-02-17T06:39:40.190Z,348.00
2018-02-17T06:40:40.193Z,372.00
2018-02-17T06:41:40.390Z,400.00
2018-02-17T06:42:40.043Z,428.00
2018-02-17T06:43:39.993Z,460.00
2018-02-17T06:44:39.943Z,492.00
2018-02-17T06:45:39.892Z,532.00
2018-02-17T06:46:39.894Z,568.00
2018-02-17T06:47:39.794Z,612.00
2018-02-17T06:48:40.046Z,664.00
2018-02-17T06:49:39.695Z,716.00
2018-02-17T06:50:39.656Z,772.00
2018-02-17T06:51:39.597Z,828.00
2018-02-17T06:52:39.549Z,892.00
2018-02-17T06:53:39.502Z,960.00
2018-02-17T06:54:39.754Z,1032.00
2018-02-17T06:55:39.402Z,1108.00
2018-02-17T06:56:39.351Z,1192.00
2018-02-17T06:57:39.307Z,1276.00
2018-02-17T06:58:39.251Z,1360.00
2018-02-17T06:59:39.203Z,1440.00
2018-02-17T07:00:39.456Z,1520.00
2018-02-17T07:01:39.108Z,1600.00
2018-02-17T07:02:39.057Z,1684.00
2018-02-17T07:03:39.008Z,1760.00
2018-02-17T07:04:38.959Z,1832.00
2018-02-17T07:05:38.908Z,1896.00
2018-02-17T07:06:39.159Z,1972.00
2018-02-17T07:07:38.861Z,2052.00
2018-02-17T07:08:38.765Z,2132.00
2018-02-17T07:09:38.721Z,2216.00
2018-02-17T07:10:38.668Z,2292.00
2018-02-17T07:11:38.615Z,2372.00
2018-02-17T07:12:38.867Z,2456.00
2018-02-17T07:13:38.620Z,2556.00
2018-02-17T07:14:38.473Z,2660.00
2018-02-17T07:15:38.419Z,2776.00
2018-02-17T07:16:38.373Z,2880.00
2018-02-17T07:17:38.325Z,2980.00
2018-02-17T07:18:38.571Z,3076.00
2018-02-17T07:19:38.275Z,3168.00
2018-02-17T07:20:38.177Z,3264.00
2018-02-17T07:21:38.126Z,3376.00
2018-02-17T07:22:38.078Z,3504.00
2018-02-17T07:23:38.028Z,3644.00
2018-02-17T07:24:37.983Z,3800.00
2018-02-17T07:25:38.236Z,3976.00
2018-02-17T07:26:37.884Z,4132.00
2018-02-17T07:27:37.840Z,4280.00
2018-02-17T07:28:37.787Z,4428.00
2018-02-17T07:29:37.738Z,4572.00
2018-02-17T07:30:37.694Z,4696.00
2018-02-17T07:31:37.644Z,4816.00
2018-02-17T07:32:37.893Z,4964.00
2018-02-17T07:33:37.544Z,5152.00
2018-02-17T07:34:37.501Z,5352.00
2018-02-17T07:35:37.500Z,5572.00
2018-02-17T07:36:37.400Z,5760.00
2018-02-17T07:37:37.351Z,5948.00
2018-02-17T07:38:37.305Z,6104.00
2018-02-17T07:39:37.566Z,6232.00
2018-02-17T07:40:37.206Z,6360.00
2018-02-17T07:41:37.211Z,6484.00
2018-02-17T07:42:37.112Z,6600.00
2018-02-17T07:43:37.063Z,6724.00
2018-02-17T07:44:37.021Z,6852.00
2018-02-17T07:45:36.968Z,6988.00
2018-02-17T07:46:37.221Z,7108.00
2018-02-17T07:47:36.975Z,7240.00
2018-02-17T07:48:36.824Z,7408.00
2018-02-17T07:49:36.778Z,7624.00
2018-02-17T07:50:36.728Z,7828.00
2018-02-17T07:51:36.752Z,8084.00
2018-02-17T07:52:36.637Z,8220.00
2018-02-17T07:53:36.891Z,8452.00
2018-02-17T07:54:36.538Z,8888.00
2018-02-17T07:55:36.492Z,9184.00
2018-02-17T07:56:37.116Z,9652.00
2018-02-17T07:57:36.397Z,9896.00
2018-02-17T07:58:36.348Z,10280.00
2018-02-17T07:59:36.300Z,10400.00
2018-02-17T08:00:36.644Z,10384.00
2018-02-17T08:01:36.216Z,10344.00
2018-02-17T08:02:36.163Z,10592.00
2018-02-17T08:03:36.117Z,10836.00
2018-02-17T08:04:36.067Z,10980.00
2018-02-17T08:05:36.024Z,11048.00
2018-02-17T08:06:36.279Z,11184.00
2018-02-17T08:07:35.936Z,11312.00
2018-02-17T08:08:35.882Z,11260.00
2018-02-17T08:09:35.835Z,11232.00
2018-02-17T08:10:35.789Z,11120.00
2018-02-17T08:11:35.741Z,11004.00
2018-02-17T08:12:35.996Z,10896.00
2018-02-17T08:13:35.697Z,10812.00
2018-02-17T08:14:35.603Z,10868.00
2018-02-17T08:15:35.555Z,10904.00
2018-02-17T08:16:35.512Z,11000.00
2018-02-17T08:17:35.463Z,11124.00
2018-02-17T08:18:35.717Z,11188.00
2018-02-17T08:19:35.372Z,11168.00
2018-02-17T08:20:35.330Z,11200.00
2018-02-17T08:21:35.276Z,11268.00
2018-02-17T08:22:35.230Z,11404.00
2018-02-17T08:23:35.191Z,11612.00
2018-02-17T08:24:35.481Z,11876.00
2018-02-17T08:25:35.099Z,12072.00
2018-02-17T08:26:35.049Z,12248.00
2018-02-17T08:27:35.006Z,12488.00
2018-02-17T08:28:35.044Z,12704.00
2018-02-17T08:29:34.961Z,12984.00
2018-02-17T08:30:35.171Z,13400.00
2018-02-17T08:31:34.819Z,13980.00
2018-02-17T08:32:34.775Z,14468.00
2018-02-17T08:33:34.725Z,14876.00
2018-02-17T08:34:34.763Z,15292.00
2018-02-17T08:35:34.686Z,15500.00
2018-02-17T08:36:34.589Z,15828.00
2018-02-17T08:37:34.844Z,16156.00
2018-02-17T08:38:34.501Z,16960.00
2018-02-17T08:39:34.540Z,17376.00
2018-02-17T08:40:34.409Z,17760.00
2018-02-17T08:41:34.411Z,17728.00
2018-02-17T08:42:34.323Z,17536.00
2018-02-17T08:43:34.274Z,18144.00
2018-02-17T08:44:34.524Z,18752.00
2018-02-17T08:45:34.181Z,19360.00
2018-02-17T08:46:34.138Z,19264.00
2018-02-17T08:47:34.094Z,19072.00
2018-02-17T08:48:34.045Z,19328.00
2018-02-17T08:49:34.008Z,18848.00
2018-02-17T08:50:33.956Z,19232.00
2018-02-17T08:51:34.226Z,19616.00
2018-02-17T08:52:33.867Z,21472.00
2018-02-17T08:53:33.821Z,22176.00
2018-02-17T08:54:33.776Z,21952.00
2018-02-17T08:55:33.733Z,21664.00
2018-02-17T08:56:33.687Z,21856.00
2018-02-17T08:57:33.650Z,20864.00
2018-02-17T08:58:33.898Z,20768.00
2018-02-17T08:59:33.555Z,20384.00
2018-02-17T09:00:33.511Z,20640.00
2018-02-17T09:01:33.467Z,20864.00
2018-02-17T09:02:33.471Z,20928.00
2018-02-17T09:03:33.375Z,21312.00
2018-02-17T09:04:33.343Z,21696.00
2018-02-17T09:05:33.595Z,22496.00
2018-02-17T09:06:33.243Z,23456.00
2018-02-17T09:07:33.201Z,22880.00
2018-02-17T09:08:33.210Z,23200.00
2018-02-17T09:09:33.117Z,23680.00
2018-02-17T09:10:33.067Z,23264.00
2018-02-17T09:11:33.024Z,23392.00
2018-02-17T09:12:33.280Z,23072.00
2018-02-17T09:13:32.937Z,22464.00
2018-02-17T09:14:32.896Z,22592.00
2018-02-17T09:15:32.849Z,22336.00
2018-02-17T09:16:32.806Z,22336.00
2018-02-17T09:17:32.761Z,22176.00
2018-02-17T09:18:33.019Z,23104.00
2018-02-17T09:19:32.676Z,23296.00
2018-02-17T09:20:32.942Z,22880.00
2018-02-17T09:21:32.591Z,23712.00
2018-02-17T09:22:32.546Z,23744.00
2018-02-17T09:23:32.501Z,23744.00
2018-02-17T09:24:32.765Z,24384.00
2018-02-17T09:25:32.415Z,25088.00
2018-02-17T09:26:32.375Z,25344.00
2018-02-17T09:27:32.366Z,25568.00
2018-02-17T09:28:32.289Z,25952.00
2018-02-17T09:29:32.243Z,26592.00
2018-02-17T09:30:32.505Z,27968.00
2018-02-17T09:31:32.158Z,28832.00
2018-02-17T09:32:32.123Z,29216.00
2018-02-17T09:33:32.068Z,29568.00
2018-02-17T09:34:32.028Z,29632.00
2018-02-17T09:35:31.983Z,29856.00
2018-02-17T09:36:32.241Z,29920.00
2018-02-17T09:37:31.945Z,30784.00
2018-02-17T09:38:31.860Z,31360.00
2018-02-17T09:39:31.813Z,31456.00
2018-02-17T09:40:31.769Z,31680.00
2018-02-17T09:41:31.728Z,32128.00
2018-02-17T09:42:31.987Z,32064.00
2018-02-17T09:43:31.641Z,33344.00
2018-02-17T09:44:31.600Z,32704.00
2018-02-17T09:45:31.556Z,32576.00
2018-02-17T09:46:31.514Z,32256.00
2018-02-17T09:47:31.472Z,30752.00
2018-02-17T09:48:31.430Z,32992.00
2018-02-17T09:49:31.694Z,34464.00
2018-02-17T09:50:31.345Z,34752.00
2018-02-17T09:51:31.302Z,35712.00
2018-02-17T09:52:31.260Z,36160.00
2018-02-17T09:53:31.272Z,37472.00
2018-02-17T09:54:31.229Z,39744.00
2018-02-17T09:55:31.276Z,40288.00
2018-02-17T09:56:31.392Z,41248.00
2018-02-17T09:57:31.058Z,43680.00
2018-02-17T09:58:31.011Z,43456.00
2018-02-17T09:59:31.029Z,44320.00
2018-02-17T10:00:30.929Z,40960.00
2018-02-17T10:01:30.885Z,46176.00
2018-02-17T10:02:30.845Z,43904.00
2018-02-17T10:03:31.855Z,39488.00
2018-02-17T10:04:30.764Z,40960.00
2018-02-17T10:05:30.771Z,40928.00
2018-02-17T10:06:30.682Z,40640.00
2018-02-17T10:07:30.647Z,40608.00
2018-02-17T10:08:30.598Z,41760.00
2018-02-17T10:09:30.559Z,43104.00
2018-02-17T10:10:30.818Z,43712.00
2018-02-17T10:11:30.480Z,42624.00
2018-02-17T10:12:30.440Z,42720.00
2018-02-17T10:13:30.748Z,44192.00
2018-02-17T10:14:30.358Z,47264.00
2018-02-17T10:15:30.383Z,46848.00
2018-02-17T10:16:30.277Z,47168.00
2018-02-17T10:17:30.561Z,49184.00
2018-02-17T10:18:30.197Z,51456.00
2018-02-17T10:19:30.193Z,50304.00
2018-02-17T10:20:30.112Z,51136.00
2018-02-17T10:21:30.121Z,50784.00
2018-02-17T10:22:30.033Z,50336.00
2018-02-17T10:23:29.989Z,49408.00
2018-02-17T10:24:30.250Z,48416.00
2018-02-17T10:25:29.922Z,44992.00
2018-02-17T10:26:29.872Z,41984.00
2018-02-17T10:27:29.883Z,43840.00
2018-02-17T10:28:29.796Z,42240.00
2018-02-17T10:29:29.752Z,41760.00
2018-02-17T10:30:30.013Z,40288.00
2018-02-17T10:31:29.673Z,38176.00
2018-02-17T10:32:29.633Z,36576.00
2018-02-17T10:33:29.696Z,44448.00
2018-02-17T10:34:29.566Z,49472.00
2018-02-17T10:35:29.590Z,57120.00
2018-02-17T10:36:29.775Z,62048.00
2018-02-17T10:37:29.432Z,62752.00
2018-02-17T10:38:29.398Z,69152.00
2018-02-17T10:39:29.360Z,72224.00
2018-02-17T10:40:29.341Z,74048.00
2018-02-17T10:41:29.287Z,75968.00
2018-02-17T10:42:29.536Z,74816.00
2018-02-17T10:43:29.348Z,75520.00
2018-02-17T10:44:29.160Z,76960.00
2018-02-17T10:45:29.184Z,76832.00
2018-02-17T10:46:29.211Z,76704.00
2018-02-17T10:47:29.147Z,75136.00
2018-02-17T10:48:29.453Z,74304.00
2018-02-17T10:49:29.397Z,72192.00
2018-02-17T10:50:29.205Z,74304.00
2018-02-17T10:51:29.004Z,76608.00
2018-02-17T10:52:28.951Z,76384.00
2018-02-17T10:53:28.925Z,73792.00
2018-02-17T10:54:29.130Z,70784.00
2018-02-17T10:55:28.827Z,74176.00
2018-02-17T10:56:28.842Z,72288.00
2018-02-17T10:57:28.882Z,75808.00
2018-02-17T10:58:28.718Z,71072.00
2018-02-17T10:59:28.617Z,67552.00
2018-02-17T11:00:28.572Z,65184.00
2018-02-17T11:01:28.833Z,73824.00
2018-02-17T11:02:28.552Z,69984.00
2018-02-17T11:03:28.466Z,73504.00
2018-02-17T11:04:28.430Z,72384.00
2018-02-17T11:05:28.389Z,75232.00
2018-02-17T11:06:28.382Z,78048.00
2018-02-17T11:07:28.321Z,79808.00
2018-02-17T11:08:28.584Z,80160.00
2018-02-17T11:09:28.638Z,82496.00
2018-02-17T11:10:28.214Z,86688.00
2018-02-17T11:11:28.176Z,85696.00
2018-02-17T11:12:28.143Z,86272.00
2018-02-17T11:13:28.112Z,86080.00
2018-02-17T11:14:28.070Z,88416.00
2018-02-17T11:15:28.385Z,88736.00
2018-02-17T11:16:28.002Z,89760.00
2018-02-17T11:17:27.975Z,88672.00
2018-02-17T11:18:27.938Z,87808.00
2018-02-17T11:19:27.900Z,83296.00
2018-02-17T11:20:27.871Z,84736.00
2018-02-17T11:21:27.832Z,78880.00
2018-02-17T11:22:28.103Z,78944.00
2018-02-17T11:23:27.766Z,79648.00
2018-02-17T11:24:27.733Z,74656.00
2018-02-17T11:25:27.705Z,62272.00
2018-02-17T11:26:27.667Z,72448.00
2018-02-17T11:27:27.633Z,71936.00
2018-02-17T11:28:27.602Z,71872.00
2018-02-17T11:29:27.864Z,72768.00
2018-02-17T11:30:27.533Z,78048.00
2018-02-17T11:31:27.500Z,76512.00
2018-02-17T11:32:27.466Z,76480.00
2018-02-17T11:33:27.430Z,76544.00
2018-02-17T11:34:27.397Z,72256.00
2018-02-17T11:35:27.379Z,69024.00
2018-02-17T11:36:27.682Z,67072.00
2018-02-17T11:37:27.297Z,66848.00
2018-02-17T11:38:27.263Z,65024.00
2018-02-17T11:39:27.231Z,62176.00
2018-02-17T11:40:27.201Z,63776.00
2018-02-17T11:41:27.172Z,63136.00
2018-02-17T11:42:27.428Z,63456.00
2018-02-17T11:43:27.148Z,65760.00
2018-02-17T11:44:27.059Z,71264.00
2018-02-17T11:45:27.030Z,71456.00
2018-02-17T11:46:26.993Z,68448.00
2018-02-17T11:47:26.960Z,72032.00
2018-02-17T11:48:27.280Z,66368.00
2018-02-17T11:49:26.892Z,69920.00
2018-02-17T11:50:26.859Z,69632.00
2018-02-17T11:51:26.823Z,69088.00
2018-02-17T11:52:26.799Z,69632.00
2018-02-17T11:53:26.759Z,67008.00
2018-02-17T11:54:27.028Z,60576.00
2018-02-17T11:55:26.690Z,58784.00
2018-02-17T11:56:26.659Z,57888.00
2018-02-17T11:57:26.630Z,57184.00
2018-02-17T11:58:26.601Z,57216.00
2018-02-17T11:59:26.560Z,58016.00
2018-02-17T12:00:26.821Z,58112.00
2018-02-17T12:01:26.491Z,58848.00
2018-02-17T12:02:26.456Z,59456.00
2018-02-17T12:03:26.434Z,61120.00
2018-02-17T12:04:26.390Z,58752.00
2018-02-17T12:05:26.397Z,58688.00
2018-02-17T12:06:26.667Z,58848.00
2018-02-17T12:07:26.279Z,60160.00
2018-02-17T12:08:26.246Z,61728.00
2018-02-17T12:09:26.211Z,63072.00
2018-02-17T12:10:26.177Z,64224.00
2018-02-17T12:11:26.142Z,65280.00
2018-02-17T12:12:26.406Z,64384.00
2018-02-17T12:13:26.072Z,66976.00
2018-02-17T12:15:26.001Z,69056.00
2018-02-17T12:16:25.968Z,69696.00
2018-02-17T12:17:25.981Z,70944.00
2018-02-17T12:18:25.895Z,69920.00
2018-02-17T12:19:26.164Z,74592.00
2018-02-17T12:20:25.826Z,75328.00
2018-02-17T12:21:25.794Z,74944.00
2018-02-17T12:22:25.757Z,72256.00
2018-02-17T12:23:25.822Z,69952.00
2018-02-17T12:24:25.691Z,69088.00
2018-02-17T12:25:25.669Z,65792.00
2018-02-17T12:26:25.967Z,63584.00
2018-02-17T12:27:25.589Z,60384.00
2018-02-17T12:28:25.555Z,58336.00
2018-02-17T12:29:25.511Z,58528.00
2018-02-17T12:30:25.480Z,57632.00
2018-02-17T12:31:25.443Z,57088.00
2018-02-17T12:32:25.412Z,61600.00
2018-02-17T12:33:25.682Z,57952.00
2018-02-17T12:34:25.388Z,56352.00